sensor_id;sensor_type;location;lat;lon;timestamp;pressure;altitude;pressure_sealevel;temperature;humidity
42691;BME280;28306;55.744;37.578;2023-07-02T00:02:25;98129.75;;;26.25;32.99
42691;BME280;28306;55.744;37.578;2023-07-02T00:04:51;98135.22;;;26.25;32.79
42691;BME280;28306;55.744;37.578;2023-07-02T00:07:16;98130.56;;;26.26;32.86
42691;BME280;28306;55.744;37.578;2023-07-02T00:09:42;98134.41;;;26.25;32.80
42691;BME280;28306;55.744;37.578;2023-07-02T00:12:07;98145.00;;;26.26;32.87
42691;BME280;28306;55.744;37.578;2023-07-02T00:14:33;98138.75;;;26.26;32.77
42691;BME280;28306;55.744;37.578;2023-07-02T00:16:59;98131.34;;;26.26;32.90
42691;BME280;28306;55.744;37.578;2023-07-02T00:19:24;98130.88;;;26.24;32.84
42691;BME280;28306;55.744;37.578;2023-07-02T00:21:50;98144.50;;;26.24;32.94
42691;BME280;28306;55.744;37.578;2023-07-02T00:24:15;98150.75;;;26.25;33.03
42691;BME280;28306;55.744;37.578;2023-07-02T00:26:41;98142.56;;;26.25;32.61
42691;BME280;28306;55.744;37.578;2023-07-02T00:29:10;98140.97;;;26.24;32.77
42691;BME280;28306;55.744;37.578;2023-07-02T00:31:36;98142.88;;;26.23;32.98
42691;BME280;28306;55.744;37.578;2023-07-02T00:34:01;98135.53;;;26.24;32.89
42691;BME280;28306;55.744;37.578;2023-07-02T00:36:27;98135.00;;;26.22;32.95
42691;BME280;28306;55.744;37.578;2023-07-02T00:38:53;98138.88;;;26.21;32.86
42691;BME280;28306;55.744;37.578;2023-07-02T00:41:18;98143.50;;;26.20;32.85
42691;BME280;28306;55.744;37.578;2023-07-02T00:43:44;98139.97;;;26.20;32.93
42691;BME280;28306;55.744;37.578;2023-07-02T00:46:13;98141.41;;;26.17;32.82
42691;BME280;28306;55.744;37.578;2023-07-02T00:48:46;98136.78;;;26.18;32.89
42691;BME280;28306;55.744;37.578;2023-07-02T00:51:13;98146.84;;;26.17;33.11
42691;BME280;28306;55.744;37.578;2023-07-02T00:53:40;98143.63;;;26.15;32.98
42691;BME280;28306;55.744;37.578;2023-07-02T00:56:05;98151.81;;;26.15;33.01
42691;BME280;28306;55.744;37.578;2023-07-02T00:58:31;98161.09;;;26.14;32.97
42691;BME280;28306;55.744;37.578;2023-07-02T01:00:59;98159.50;;;26.13;32.97
42691;BME280;28306;55.744;37.578;2023-07-02T01:03:24;98160.59;;;26.12;32.96
42691;BME280;28306;55.744;37.578;2023-07-02T01:05:50;98159.00;;;26.11;33.12
42691;BME280;28306;55.744;37.578;2023-07-02T01:08:15;98168.78;;;26.12;33.11
42691;BME280;28306;55.744;37.578;2023-07-02T01:10:42;98169.88;;;26.11;33.23
42691;BME280;28306;55.744;37.578;2023-07-02T01:13:09;98163.34;;;26.12;33.20
42691;BME280;28306;55.744;37.578;2023-07-02T01:15:36;98166.84;;;26.13;33.10
42691;BME280;28306;55.744;37.578;2023-07-02T01:18:01;98164.97;;;26.13;33.05
42691;BME280;28306;55.744;37.578;2023-07-02T01:20:28;98158.69;;;26.13;32.99
42691;BME280;28306;55.744;37.578;2023-07-02T01:22:56;98161.41;;;26.13;33.05
42691;BME280;28306;55.744;37.578;2023-07-02T01:25:22;98159.50;;;26.13;33.23
42691;BME280;28306;55.744;37.578;2023-07-02T01:27:50;98166.84;;;26.13;33.04
42691;BME280;28306;55.744;37.578;2023-07-02T01:30:15;98164.13;;;26.13;33.19
42691;BME280;28306;55.744;37.578;2023-07-02T01:32:41;98170.72;;;26.12;33.37
42691;BME280;28306;55.744;37.578;2023-07-02T01:35:07;98162.53;;;26.12;33.11
42691;BME280;28306;55.744;37.578;2023-07-02T01:37:32;98164.44;;;26.11;33.26
42691;BME280;28306;55.744;37.578;2023-07-02T01:40:05;98171.81;;;26.11;33.13
42691;BME280;28306;55.744;37.578;2023-07-02T01:42:31;98166.38;;;26.11;33.31
42691;BME280;28306;55.744;37.578;2023-07-02T01:44:57;98168.31;;;26.10;33.19
42691;BME280;28306;55.744;37.578;2023-07-02T01:47:23;98170.19;;;26.10;33.24
42691;BME280;28306;55.744;37.578;2023-07-02T01:49:49;98170.19;;;26.10;33.25
42691;BME280;28306;55.744;37.578;2023-07-02T01:52:14;98167.78;;;26.08;33.31
42691;BME280;28306;55.744;37.578;2023-07-02T01:54:41;98167.78;;;26.08;33.13
42691;BME280;28306;55.744;37.578;2023-07-02T01:57:08;98171.66;;;26.07;33.21
42691;BME280;28306;55.744;37.578;2023-07-02T01:59:33;98168.09;;;26.06;33.32
42691;BME280;28306;55.744;37.578;2023-07-02T02:01:59;98179.00;;;26.06;33.38
42691;BME280;28306;55.744;37.578;2023-07-02T02:04:24;98170.03;;;26.06;33.50
42691;BME280;28306;55.744;37.578;2023-07-02T02:06:51;98180.13;;;26.05;33.27
42691;BME280;28306;55.744;37.578;2023-07-02T02:09:17;98176.56;;;26.05;33.30
42691;BME280;28306;55.744;37.578;2023-07-02T02:11:44;98180.13;;;26.05;33.47
42691;BME280;28306;55.744;37.578;2023-07-02T02:14:10;98176.56;;;26.05;33.43
42691;BME280;28306;55.744;37.578;2023-07-02T02:16:35;98179.00;;;26.06;33.32
42691;BME280;28306;55.744;37.578;2023-07-02T02:19:01;98181.72;;;26.06;33.55
42691;BME280;28306;55.744;37.578;2023-07-02T02:21:27;98167.00;;;26.07;33.54
42691;BME280;28306;55.744;37.578;2023-07-02T02:23:53;98168.91;;;26.07;33.35
42691;BME280;28306;55.744;37.578;2023-07-02T02:26:18;98175.97;;;26.08;33.40
42691;BME280;28306;55.744;37.578;2023-07-02T02:28:46;98167.78;;;26.08;33.45
42691;BME280;28306;55.744;37.578;2023-07-02T02:31:12;98165.88;;;26.08;33.44
42691;BME280;28306;55.744;37.578;2023-07-02T02:33:38;98165.56;;;26.10;33.39
42691;BME280;28306;55.744;37.578;2023-07-02T02:36:04;98167.47;;;26.10;33.51
42691;BME280;28306;55.744;37.578;2023-07-02T02:38:29;98166.38;;;26.11;33.41
42691;BME280;28306;55.744;37.578;2023-07-02T02:40:55;98177.28;;;26.11;33.27
42691;BME280;28306;55.744;37.578;2023-07-02T02:43:20;98173.44;;;26.12;33.38
42691;BME280;28306;55.744;37.578;2023-07-02T02:45:48;98180.00;;;26.11;33.47
42691;BME280;28306;55.744;37.578;2023-07-02T02:48:13;98173.44;;;26.12;33.45
42691;BME280;28306;55.744;37.578;2023-07-02T02:50:39;98177.28;;;26.11;33.54
42691;BME280;28306;55.744;37.578;2023-07-02T02:53:09;98182.72;;;26.11;33.57
42691;BME280;28306;55.744;37.578;2023-07-02T02:55:35;98187.38;;;26.10;33.40
42691;BME280;28306;55.744;37.578;2023-07-02T02:58:00;98181.94;;;26.10;33.45
42691;BME280;28306;55.744;37.578;2023-07-02T03:00:26;98183.81;;;26.10;33.43
42691;BME280;28306;55.744;37.578;2023-07-02T03:02:51;98187.38;;;26.10;33.51
42691;BME280;28306;55.744;37.578;2023-07-02T03:05:17;98195.56;;;26.10;33.46
42691;BME280;28306;55.744;37.578;2023-07-02T03:07:42;98201.00;;;26.10;33.58
42691;BME280;28306;55.744;37.578;2023-07-02T03:10:08;98195.56;;;26.10;33.57
42691;BME280;28306;55.744;37.578;2023-07-02T03:12:34;98204.53;;;26.11;33.46
42691;BME280;28306;55.744;37.578;2023-07-02T03:15:00;98189.28;;;26.10;33.70
42691;BME280;28306;55.744;37.578;2023-07-02T03:17:25;98216.22;;;26.11;33.61
42691;BME280;28306;55.744;37.578;2023-07-02T03:19:51;98212.72;;;26.11;33.44
42691;BME280;28306;55.744;37.578;2023-07-02T03:22:16;98220.56;;;26.12;33.37
42691;BME280;28306;55.744;37.578;2023-07-02T03:24:42;98214.34;;;26.12;33.52
42691;BME280;28306;55.744;37.578;2023-07-02T03:27:07;98215.91;;;26.13;33.57
42691;BME280;28306;55.744;37.578;2023-07-02T03:29:36;98214.03;;;26.13;33.58
42691;BME280;28306;55.744;37.578;2023-07-02T03:32:03;98210.16;;;26.14;33.44
42691;BME280;28306;55.744;37.578;2023-07-02T03:34:29;98209.38;;;26.14;33.45
42691;BME280;28306;55.744;37.578;2023-07-02T03:36:54;98211.00;;;26.15;33.41
42691;BME280;28306;55.744;37.578;2023-07-02T03:39:20;98217.22;;;26.15;33.62
42691;BME280;28306;55.744;37.578;2023-07-02T03:41:45;98213.72;;;26.15;33.72
42691;BME280;28306;55.744;37.578;2023-07-02T03:44:11;98225.41;;;26.15;33.46
42691;BME280;28306;55.744;37.578;2023-07-02T03:46:36;98223.47;;;26.16;33.57
42691;BME280;28306;55.744;37.578;2023-07-02T03:49:02;98230.06;;;26.15;33.50
42691;BME280;28306;55.744;37.578;2023-07-02T03:51:28;98228.13;;;26.15;33.42
42691;BME280;28306;55.744;37.578;2023-07-02T03:53:54;98229.75;;;26.16;33.42
42691;BME280;28306;55.744;37.578;2023-07-02T03:56:19;98228.94;;;26.16;33.39
42691;BME280;28306;55.744;37.578;2023-07-02T03:58:45;98229.75;;;26.16;33.61
42691;BME280;28306;55.744;37.578;2023-07-02T04:01:10;98225.09;;;26.17;33.43
42691;BME280;28306;55.744;37.578;2023-07-02T04:03:36;98233.28;;;26.17;33.51
42691;BME280;28306;55.744;37.578;2023-07-02T04:06:01;98234.91;;;26.18;33.50
42691;BME280;28306;55.744;37.578;2023-07-02T04:08:27;98233.28;;;26.17;33.51
42691;BME280;28306;55.744;37.578;2023-07-02T04:10:53;98237.94;;;26.16;33.63
42691;BME280;28306;55.744;37.578;2023-07-02T04:13:19;98241.47;;;26.17;33.72
42691;BME280;28306;55.744;37.578;2023-07-02T04:15:44;98243.09;;;26.18;33.48
42691;BME280;28306;55.744;37.578;2023-07-02T04:18:10;98234.91;;;26.18;33.57
42691;BME280;28306;55.744;37.578;2023-07-02T04:20:35;98244.69;;;26.19;33.54
42691;BME280;28306;55.744;37.578;2023-07-02T04:23:06;98240.84;;;26.20;33.44
42691;BME280;28306;55.744;37.578;2023-07-02T04:25:32;98244.88;;;26.22;33.56
42691;BME280;28306;55.744;37.578;2023-07-02T04:27:57;98251.13;;;26.23;33.51
42691;BME280;28306;55.744;37.578;2023-07-02T04:30:24;98250.81;;;26.24;33.66
42691;BME280;28306;55.744;37.578;2023-07-02T04:32:50;98250.53;;;26.26;33.68
42691;BME280;28306;55.744;37.578;2023-07-02T04:35:15;98261.91;;;26.28;33.46
42691;BME280;28306;55.744;37.578;2023-07-02T04:37:41;98250.38;;;26.31;33.57
42691;BME280;28306;55.744;37.578;2023-07-02T04:40:06;98254.75;;;26.32;33.41
42691;BME280;28306;55.744;37.578;2023-07-02T04:42:38;98258.25;;;26.33;33.49
42691;BME280;28306;55.744;37.578;2023-07-02T04:45:04;98265.03;;;26.35;33.49
42691;BME280;28306;55.744;37.578;2023-07-02T04:47:30;98264.72;;;26.37;33.40
42691;BME280;28306;55.744;37.578;2023-07-02T04:49:56;98262.78;;;26.37;33.41
42691;BME280;28306;55.744;37.578;2023-07-02T04:52:21;98267.44;;;26.37;33.41
42691;BME280;28306;55.744;37.578;2023-07-02T04:54:47;98268.25;;;26.37;33.53
42691;BME280;28306;55.744;37.578;2023-07-02T04:57:12;98267.13;;;26.38;33.47
42691;BME280;28306;55.744;37.578;2023-07-02T04:59:44;98269.88;;;26.38;33.59
42691;BME280;28306;55.744;37.578;2023-07-02T05:02:09;98271.47;;;26.39;33.47
42691;BME280;28306;55.744;37.578;2023-07-02T05:04:35;98261.69;;;26.38;33.42
42691;BME280;28306;55.744;37.578;2023-07-02T05:07:01;98260.56;;;26.39;33.46
42691;BME280;28306;55.744;37.578;2023-07-02T05:09:26;98264.91;;;26.40;33.31
42691;BME280;28306;55.744;37.578;2023-07-02T05:11:51;98260.25;;;26.41;33.34
42691;BME280;28306;55.744;37.578;2023-07-02T05:14:17;98261.06;;;26.41;33.55
42691;BME280;28306;55.744;37.578;2023-07-02T05:16:42;98270.34;;;26.40;33.38
42691;BME280;28306;55.744;37.578;2023-07-02T05:19:08;98264.09;;;26.40;33.25
42691;BME280;28306;55.744;37.578;2023-07-02T05:21:33;98261.38;;;26.40;33.26
42691;BME280;28306;55.744;37.578;2023-07-02T05:23:59;98260.56;;;26.39;33.39
42691;BME280;28306;55.744;37.578;2023-07-02T05:26:24;98264.59;;;26.42;33.47
42691;BME280;28306;55.744;37.578;2023-07-02T05:28:51;98260.75;;;26.43;33.20
42691;BME280;28306;55.744;37.578;2023-07-02T05:31:16;98260.75;;;26.43;33.26
42691;BME280;28306;55.744;37.578;2023-07-02T05:33:42;98257.72;;;26.44;33.32
42691;BME280;28306;55.744;37.578;2023-07-02T05:36:07;98261.25;;;26.45;33.31
42691;BME280;28306;55.744;37.578;2023-07-02T05:38:33;98271.06;;;26.46;33.31
42691;BME280;28306;55.744;37.578;2023-07-02T05:40:58;98267.19;;;26.47;33.26
42691;BME280;28306;55.744;37.578;2023-07-02T05:43:24;98271.53;;;26.48;33.21
42691;BME280;28306;55.744;37.578;2023-07-02T05:45:50;98275.06;;;26.49;33.30
42691;BME280;28306;55.744;37.578;2023-07-02T05:48:16;98273.97;;;26.50;33.33
42691;BME280;28306;55.744;37.578;2023-07-02T05:50:41;98267.41;;;26.51;33.49
42691;BME280;28306;55.744;37.578;2023-07-02T05:53:07;98267.41;;;26.51;33.51
42691;BME280;28306;55.744;37.578;2023-07-02T05:55:34;98269.00;;;26.52;33.39
42691;BME280;28306;55.744;37.578;2023-07-02T05:57:59;98267.88;;;26.53;33.27
42691;BME280;28306;55.744;37.578;2023-07-02T06:00:27;98272.53;;;26.52;33.28
42691;BME280;28306;55.744;37.578;2023-07-02T06:02:52;98276.88;;;26.53;33.28
42691;BME280;28306;55.744;37.578;2023-07-02T06:05:18;98277.69;;;26.54;33.21
42691;BME280;28306;55.744;37.578;2023-07-02T06:07:43;98278.50;;;26.54;33.31
42691;BME280;28306;55.744;37.578;2023-07-02T06:10:09;98273.81;;;26.55;33.31
42691;BME280;28306;55.744;37.578;2023-07-02T06:12:34;98281.69;;;26.56;33.24
42691;BME280;28306;55.744;37.578;2023-07-02T06:14:59;98287.16;;;26.56;33.31
42691;BME280;28306;55.744;37.578;2023-07-02T06:17:25;98277.06;;;26.57;33.20
42691;BME280;28306;55.744;37.578;2023-07-02T06:19:50;98275.94;;;26.58;33.25
42691;BME280;28306;55.744;37.578;2023-07-02T06:22:16;98273.22;;;26.58;33.20
42691;BME280;28306;55.744;37.578;2023-07-02T06:24:41;98284.94;;;26.58;33.37
42691;BME280;28306;55.744;37.578;2023-07-02T06:27:07;98283.00;;;26.59;33.34
42691;BME280;28306;55.744;37.578;2023-07-02T06:29:32;98283.81;;;26.59;33.34
42691;BME280;28306;55.744;37.578;2023-07-02T06:31:57;98279.97;;;26.60;33.30
42691;BME280;28306;55.744;37.578;2023-07-02T06:34:23;98285.13;;;26.62;33.21
42691;BME280;28306;55.744;37.578;2023-07-02T06:36:48;98284.81;;;26.64;33.22
42691;BME280;28306;55.744;37.578;2023-07-02T06:39:14;98284.81;;;26.64;33.17
42691;BME280;28306;55.744;37.578;2023-07-02T06:41:39;98277.44;;;26.64;33.23
42691;BME280;28306;55.744;37.578;2023-07-02T06:44:05;98285.59;;;26.64;33.17
42691;BME280;28306;55.744;37.578;2023-07-02T06:46:30;98279.88;;;26.66;33.21
42691;BME280;28306;55.744;37.578;2023-07-02T06:48:56;98278.78;;;26.67;33.13
42691;BME280;28306;55.744;37.578;2023-07-02T06:51:21;98285.03;;;26.67;33.22
42691;BME280;28306;55.744;37.578;2023-07-02T06:53:47;98276.84;;;26.67;33.21
42691;BME280;28306;55.744;37.578;2023-07-02T06:56:13;98286.63;;;26.68;33.21
42691;BME280;28306;55.744;37.578;2023-07-02T06:58:44;98273.00;;;26.68;33.17
42691;BME280;28306;55.744;37.578;2023-07-02T07:01:09;98273.78;;;26.69;33.23
42691;BME280;28306;55.744;37.578;2023-07-02T07:03:35;98274.59;;;26.69;33.08
42691;BME280;28306;55.744;37.578;2023-07-02T07:06:01;98276.22;;;26.70;33.21
42691;BME280;28306;55.744;37.578;2023-07-02T07:08:26;98285.19;;;26.71;33.26
42691;BME280;28306;55.744;37.578;2023-07-02T07:10:52;98281.34;;;26.72;33.13
42691;BME280;28306;55.744;37.578;2023-07-02T07:13:17;98293.06;;;26.72;33.08
42691;BME280;28306;55.744;37.578;2023-07-02T07:15:43;98291.97;;;26.73;33.08
42691;BME280;28306;55.744;37.578;2023-07-02T07:18:08;98294.38;;;26.75;33.25
42691;BME280;28306;55.744;37.578;2023-07-02T07:20:34;98290.56;;;26.76;33.13
42691;BME280;28306;55.744;37.578;2023-07-02T07:23:01;98291.34;;;26.76;33.05
42691;BME280;28306;55.744;37.578;2023-07-02T07:25:27;98289.41;;;26.77;32.91
42691;BME280;28306;55.744;37.578;2023-07-02T07:27:52;98295.69;;;26.77;33.28
42691;BME280;28306;55.744;37.578;2023-07-02T07:30:18;98294.88;;;26.77;33.15
42691;BME280;28306;55.744;37.578;2023-07-02T07:32:50;98303.06;;;26.77;33.15
42691;BME280;28306;55.744;37.578;2023-07-02T07:35:16;98297.28;;;26.78;33.02
42691;BME280;28306;55.744;37.578;2023-07-02T07:37:42;98290.72;;;26.79;32.91
42691;BME280;28306;55.744;37.578;2023-07-02T07:40:07;98289.63;;;26.81;32.95
42691;BME280;28306;55.744;37.578;2023-07-02T07:42:33;98292.34;;;26.81;32.92
42691;BME280;28306;55.744;37.578;2023-07-02T07:44:58;98299.41;;;26.82;32.86
42691;BME280;28306;55.744;37.578;2023-07-02T07:47:24;98300.22;;;26.82;32.89
42691;BME280;28306;55.744;37.578;2023-07-02T07:49:49;98295.56;;;26.83;33.02
42691;BME280;28306;55.744;37.578;2023-07-02T07:52:15;98294.94;;;26.86;32.87
42691;BME280;28306;55.744;37.578;2023-07-02T07:54:40;98295.72;;;26.86;32.93
42691;BME280;28306;55.744;37.578;2023-07-02T07:57:06;98296.25;;;26.88;32.85
42691;BME280;28306;55.744;37.578;2023-07-02T07:59:31;98299.16;;;26.92;32.89
42691;BME280;28306;55.744;37.578;2023-07-02T08:01:57;98288.72;;;26.94;33.00
42691;BME280;28306;55.744;37.578;2023-07-02T08:04:22;98285.69;;;26.95;32.97
42691;BME280;28306;55.744;37.578;2023-07-02T08:06:48;98295.50;;;26.96;32.83
42691;BME280;28306;55.744;37.578;2023-07-02T08:09:13;98291.97;;;26.96;32.54
42691;BME280;28306;55.744;37.578;2023-07-02T08:11:39;98292.75;;;26.96;32.97
42691;BME280;28306;55.744;37.578;2023-07-02T08:14:04;98296.28;;;26.97;32.84
42691;BME280;28306;55.744;37.578;2023-07-02T08:16:30;98310.75;;;26.97;32.74
42691;BME280;28306;55.744;37.578;2023-07-02T08:18:55;98307.19;;;26.97;33.05
42691;BME280;28306;55.744;37.578;2023-07-02T08:21:20;98309.94;;;26.97;32.82
42691;BME280;28306;55.744;37.578;2023-07-02T08:23:46;98311.88;;;26.96;32.68
42691;BME280;28306;55.744;37.578;2023-07-02T08:26:11;98306.41;;;26.96;32.68
42691;BME280;28306;55.744;37.578;2023-07-02T08:28:37;98309.63;;;26.98;32.74
42691;BME280;28306;55.744;37.578;2023-07-02T08:31:05;98307.06;;;27.02;32.71
42691;BME280;28306;55.744;37.578;2023-07-02T08:33:31;98316.25;;;27.06;32.68
42691;BME280;28306;55.744;37.578;2023-07-02T08:35:56;98300.66;;;27.07;32.59
42691;BME280;28306;55.744;37.578;2023-07-02T08:38:22;98311.59;;;27.07;32.59
42691;BME280;28306;55.744;37.578;2023-07-02T08:40:51;98305.34;;;27.06;32.60
42691;BME280;28306;55.744;37.578;2023-07-02T08:43:16;98309.16;;;27.05;32.71
42691;BME280;28306;55.744;37.578;2023-07-02T08:45:42;98300.50;;;27.03;32.61
42691;BME280;28306;55.744;37.578;2023-07-02T08:48:08;98304.84;;;27.04;32.72
42691;BME280;28306;55.744;37.578;2023-07-02T08:50:34;98311.41;;;27.03;32.67
42691;BME280;28306;55.744;37.578;2023-07-02T08:52:59;98304.84;;;27.04;32.71
42691;BME280;28306;55.744;37.578;2023-07-02T08:55:25;98302.91;;;27.05;32.66
42691;BME280;28306;55.744;37.578;2023-07-02T08:57:52;98305.66;;;27.05;32.73
42691;BME280;28306;55.744;37.578;2023-07-02T09:00:18;98310.31;;;27.04;32.53
42691;BME280;28306;55.744;37.578;2023-07-02T09:02:43;98308.69;;;27.03;32.59
42691;BME280;28306;55.744;37.578;2023-07-02T09:05:10;98307.06;;;27.02;32.60
42691;BME280;28306;55.744;37.578;2023-07-02T09:07:48;98305.47;;;27.01;32.54
42691;BME280;28306;55.744;37.578;2023-07-02T09:10:29;98295.34;;;27.02;32.52
42691;BME280;28306;55.744;37.578;2023-07-02T09:13:07;98303.22;;;27.03;32.61
42691;BME280;28306;55.744;37.578;2023-07-02T09:15:38;98305.66;;;27.05;32.72
42691;BME280;28306;55.744;37.578;2023-07-02T09:18:25;98309.16;;;27.05;32.58
42691;BME280;28306;55.744;37.578;2023-07-02T09:20:50;98301.50;;;27.07;32.56
42691;BME280;28306;55.744;37.578;2023-07-02T09:23:16;98305.34;;;27.06;32.68
42691;BME280;28306;55.744;37.578;2023-07-02T09:25:42;98308.06;;;27.06;32.81
42691;BME280;28306;55.744;37.578;2023-07-02T09:28:21;98309.69;;;27.07;32.53
42691;BME280;28306;55.744;37.578;2023-07-02T09:30:56;98308.53;;;27.08;32.82
42691;BME280;28306;55.744;37.578;2023-07-02T09:33:27;98306.31;;;27.10;32.68
42691;BME280;28306;55.744;37.578;2023-07-02T09:35:52;98302.47;;;27.11;32.49
42691;BME280;28306;55.744;37.578;2023-07-02T09:38:21;98307.59;;;27.13;32.54
42691;BME280;28306;55.744;37.578;2023-07-02T09:40:47;98302.97;;;27.13;32.60
42691;BME280;28306;55.744;37.578;2023-07-02T09:43:14;98309.72;;;27.16;32.44
42691;BME280;28306;55.744;37.578;2023-07-02T09:45:42;98311.34;;;27.17;32.50
42691;BME280;28306;55.744;37.578;2023-07-02T09:48:07;98309.59;;;27.21;32.42
42691;BME280;28306;55.744;37.578;2023-07-02T09:50:33;98301.09;;;27.23;32.40
42691;BME280;28306;55.744;37.578;2023-07-02T09:53:00;98302.38;;;27.25;32.50
42691;BME280;28306;55.744;37.578;2023-07-02T09:55:25;98303.19;;;27.26;32.40
42691;BME280;28306;55.744;37.578;2023-07-02T09:57:51;98303.38;;;27.29;32.49
42691;BME280;28306;55.744;37.578;2023-07-02T10:00:17;98299.25;;;27.32;32.51
42691;BME280;28306;55.744;37.578;2023-07-02T10:02:47;98302.16;;;27.36;32.54
42691;BME280;28306;55.744;37.578;2023-07-02T10:05:23;98294.44;;;27.38;32.37
42691;BME280;28306;55.744;37.578;2023-07-02T10:07:49;98303.94;;;27.40;32.31
42691;BME280;28306;55.744;37.578;2023-07-02T10:10:25;98308.78;;;27.43;32.26
42691;BME280;28306;55.744;37.578;2023-07-02T10:12:50;98303.47;;;27.47;32.31
42691;BME280;28306;55.744;37.578;2023-07-02T10:15:23;98297.69;;;27.48;32.24
42691;BME280;28306;55.744;37.578;2023-07-02T10:18:00;98294.34;;;27.51;32.14
42691;BME280;28306;55.744;37.578;2023-07-02T10:20:32;98305.88;;;27.48;32.28
42691;BME280;28306;55.744;37.578;2023-07-02T10:22:58;98311.97;;;27.45;32.12
42691;BME280;28306;55.744;37.578;2023-07-02T10:25:28;98311.81;;;27.42;32.29
42691;BME280;28306;55.744;37.578;2023-07-02T10:27:54;98310.50;;;27.39;32.46
42691;BME280;28306;55.744;37.578;2023-07-02T10:30:29;98312.25;;;27.35;32.26
42691;BME280;28306;55.744;37.578;2023-07-02T10:32:55;98309.03;;;27.33;32.27
42691;BME280;28306;55.744;37.578;2023-07-02T10:35:32;98327.34;;;27.32;32.23
42691;BME280;28306;55.744;37.578;2023-07-02T10:37:58;98323.81;;;27.32;32.27
42691;BME280;28306;55.744;37.578;2023-07-02T10:40:23;98330.88;;;27.33;32.35
42691;BME280;28306;55.744;37.578;2023-07-02T10:42:49;98335.41;;;27.38;32.40
42691;BME280;28306;55.744;37.578;2023-07-02T10:45:15;98321.44;;;27.39;32.24
42691;BME280;28306;55.744;37.578;2023-07-02T10:47:41;98325.47;;;27.42;32.31
42691;BME280;28306;55.744;37.578;2023-07-02T10:50:19;98331.59;;;27.47;32.28
42691;BME280;28306;55.744;37.578;2023-07-02T10:52:45;98323.06;;;27.49;32.18
42691;BME280;28306;55.744;37.578;2023-07-02T10:55:15;98327.44;;;27.50;32.30
42691;BME280;28306;55.744;37.578;2023-07-02T10:57:41;98324.06;;;27.53;32.21
42691;BME280;28306;55.744;37.578;2023-07-02T11:00:07;98326.16;;;27.56;32.04
42691;BME280;28306;55.744;37.578;2023-07-02T11:02:42;98322.00;;;27.59;32.12
42691;BME280;28306;55.744;37.578;2023-07-02T11:05:08;98331.16;;;27.63;32.16
42691;BME280;28306;55.744;37.578;2023-07-02T11:07:40;98323.47;;;27.65;31.87
42691;BME280;28306;55.744;37.578;2023-07-02T11:10:06;98325.06;;;27.66;32.01
42691;BME280;28306;55.744;37.578;2023-07-02T11:12:32;98327.50;;;27.67;32.00
42691;BME280;28306;55.744;37.578;2023-07-02T11:15:07;98324.44;;;27.69;31.94
42691;BME280;28306;55.744;37.578;2023-07-02T11:17:33;98323.81;;;27.72;31.90
42691;BME280;28306;55.744;37.578;2023-07-02T11:19:58;98333.63;;;27.73;31.92
42691;BME280;28306;55.744;37.578;2023-07-02T11:22:34;98335.72;;;27.76;31.84
42691;BME280;28306;55.744;37.578;2023-07-02T11:25:18;98331.22;;;27.80;31.75
42691;BME280;28306;55.744;37.578;2023-07-02T11:27:45;98330.44;;;27.80;31.71
42691;BME280;28306;55.744;37.578;2023-07-02T11:30:11;98333.63;;;27.82;31.91
42691;BME280;28306;55.744;37.578;2023-07-02T11:32:49;98334.16;;;27.93;31.71
42691;BME280;28306;55.744;37.578;2023-07-02T11:35:15;98335.00;;;28.02;31.73
42691;BME280;28306;55.744;37.578;2023-07-02T11:37:41;98334.56;;;28.17;31.56
42691;BME280;28306;55.744;37.578;2023-07-02T11:40:07;98338.44;;;28.25;31.38
42691;BME280;28306;55.744;37.578;2023-07-02T11:42:32;98331.53;;;28.36;31.29
42691;BME280;28306;55.744;37.578;2023-07-02T11:44:58;98320.75;;;28.49;31.35
42691;BME280;28306;55.744;37.578;2023-07-02T11:47:23;98314.50;;;28.66;31.33
42691;BME280;28306;55.744;37.578;2023-07-02T11:49:50;98314.94;;;28.85;31.08
42691;BME280;28306;55.744;37.578;2023-07-02T11:52:15;98322.00;;;29.04;31.17
42691;BME280;28306;55.744;37.578;2023-07-02T11:54:41;98323.28;;;29.24;31.13
42691;BME280;28306;55.744;37.578;2023-07-02T11:57:06;98330.00;;;29.44;31.08
42691;BME280;28306;55.744;37.578;2023-07-02T11:59:32;98330.25;;;29.60;30.88
42691;BME280;28306;55.744;37.578;2023-07-02T12:01:57;98330.94;;;29.78;30.64
42691;BME280;28306;55.744;37.578;2023-07-02T12:04:23;98323.47;;;29.96;30.58
42691;BME280;28306;55.744;37.578;2023-07-02T12:06:50;98329.50;;;30.10;30.68
42691;BME280;28306;55.744;37.578;2023-07-02T12:09:17;98325.78;;;30.15;30.54
42691;BME280;28306;55.744;37.578;2023-07-02T12:11:42;98328.94;;;30.26;30.53
42691;BME280;28306;55.744;37.578;2023-07-02T12:14:10;98329.50;;;30.40;30.27
42691;BME280;28306;55.744;37.578;2023-07-02T12:16:36;98328.91;;;30.55;30.58
42691;BME280;28306;55.744;37.578;2023-07-02T12:19:01;98328.81;;;30.64;30.48
42691;BME280;28306;55.744;37.578;2023-07-02T12:21:27;98327.47;;;30.70;30.28
42691;BME280;28306;55.744;37.578;2023-07-02T12:23:52;98327.38;;;30.79;30.26
42691;BME280;28306;55.744;37.578;2023-07-02T12:26:18;98320.00;;;30.92;30.14
42691;BME280;28306;55.744;37.578;2023-07-02T12:28:43;98327.97;;;31.06;30.12
42691;BME280;28306;55.744;37.578;2023-07-02T12:31:09;98328.13;;;31.22;30.04
42691;BME280;28306;55.744;37.578;2023-07-02T12:33:35;98320.81;;;31.38;30.06
42691;BME280;28306;55.744;37.578;2023-07-02T12:36:01;98324.03;;;31.53;30.20
42691;BME280;28306;55.744;37.578;2023-07-02T12:38:26;98330.03;;;31.67;29.90
42691;BME280;28306;55.744;37.578;2023-07-02T12:40:52;98324.97;;;31.82;29.96
42691;BME280;28306;55.744;37.578;2023-07-02T12:43:17;98335.97;;;31.94;29.63
42691;BME280;28306;55.744;37.578;2023-07-02T12:45:42;98326.78;;;32.02;29.41
42691;BME280;28306;55.744;37.578;2023-07-02T12:48:08;98336.22;;;32.13;29.32